createdAt,value
2022-09-06T00:01:14.213Z,17.37
2022-09-06T00:03:41.906Z,17.33
2022-09-06T00:06:13.085Z,17.15
2022-09-06T00:08:40.608Z,17.26
2022-09-06T00:11:08.535Z,17.28
2022-09-06T00:13:36.559Z,17.27
2022-09-06T00:16:14.633Z,17.22
2022-09-06T00:18:43.274Z,17.20
2022-09-06T00:21:18.194Z,17.16
2022-09-06T00:23:45.334Z,17.14
2022-09-06T00:26:13.316Z,17.12
2022-09-06T00:28:41.061Z,17.08
2022-09-06T00:31:29.272Z,17.01
2022-09-06T00:33:56.461Z,16.93
2022-09-06T00:36:24.358Z,16.94
2022-09-06T00:38:51.544Z,16.93
2022-09-06T00:41:18.624Z,16.93
2022-09-06T00:43:46.166Z,16.92
2022-09-06T00:46:20.932Z,16.90
2022-09-06T00:48:53.430Z,16.88
2022-09-06T00:51:24.057Z,16.85
2022-09-06T00:53:52.367Z,16.82
2022-09-06T00:56:19.644Z,16.84
2022-09-06T00:58:49.000Z,16.59
2022-09-06T01:01:16.238Z,16.78
2022-09-06T01:03:43.639Z,16.80
2022-09-06T01:06:24.669Z,16.78
2022-09-06T01:08:58.535Z,16.75
2022-09-06T01:12:02.161Z,16.72
2022-09-06T01:15:09.589Z,16.68
2022-09-06T01:17:40.069Z,16.68
2022-09-06T01:20:31.329Z,16.65
2022-09-06T01:23:24.988Z,16.62
2022-09-06T01:26:30.524Z,16.59
2022-09-06T01:28:58.704Z,16.52
2022-09-06T01:31:25.737Z,16.51
2022-09-06T01:34:08.165Z,16.50
2022-09-06T01:37:08.840Z,16.50
2022-09-06T01:39:38.140Z,16.50
2022-09-06T01:42:10.548Z,16.48
2022-09-06T01:44:43.026Z,16.42
2022-09-06T01:47:35.928Z,16.42
2022-09-06T01:51:00.638Z,16.42
2022-09-06T01:53:58.742Z,16.48
2022-09-06T01:56:47.102Z,16.46
2022-09-06T01:59:38.075Z,16.41
2022-09-06T02:02:25.677Z,16.42
2022-09-06T02:05:37.988Z,16.43
2022-09-06T02:08:17.552Z,16.39
2022-09-06T02:11:02.513Z,16.27
2022-09-06T02:13:40.639Z,16.34
2022-09-06T02:16:13.467Z,16.31
2022-09-06T02:18:50.735Z,16.29
2022-09-06T02:21:22.342Z,16.25
2022-09-06T02:23:51.365Z,16.15
2022-09-06T02:26:25.624Z,16.27
2022-09-06T02:28:53.045Z,16.24
2022-09-06T02:31:32.054Z,16.21
2022-09-06T02:33:59.834Z,16.23
2022-09-06T02:36:27.593Z,16.22
2022-09-06T02:38:54.943Z,16.25
2022-09-06T02:41:24.357Z,16.25
2022-09-06T02:43:51.417Z,16.24
2022-09-06T02:46:18.673Z,16.26
2022-09-06T02:48:46.776Z,16.28
2022-09-06T02:51:13.893Z,16.25
2022-09-06T02:53:41.203Z,16.17
2022-09-06T02:56:08.487Z,16.12
2022-09-06T02:58:35.869Z,16.06
2022-09-06T03:01:03.194Z,16.17
2022-09-06T03:03:30.337Z,16.18
2022-09-06T03:05:57.371Z,16.19
2022-09-06T03:08:26.477Z,16.19
2022-09-06T03:10:56.877Z,16.19
2022-09-06T03:13:24.867Z,16.13
2022-09-06T03:15:55.339Z,16.10
2022-09-06T03:18:28.306Z,16.05
2022-09-06T03:20:57.086Z,16.02
2022-09-06T03:23:26.723Z,15.98
2022-09-06T03:25:54.141Z,15.89
2022-09-06T03:28:22.577Z,15.90
2022-09-06T03:30:51.802Z,15.88
2022-09-06T03:33:20.434Z,15.68
2022-09-06T03:35:55.082Z,15.65
2022-09-06T03:38:23.522Z,15.88
2022-09-06T03:40:51.454Z,15.78
2022-09-06T03:43:19.969Z,15.83
2022-09-06T03:45:49.988Z,15.82
2022-09-06T03:48:18.917Z,15.76
2022-09-06T03:50:52.971Z,15.76
2022-09-06T03:53:21.630Z,15.77
2022-09-06T03:55:52.277Z,15.70
2022-09-06T03:58:22.662Z,15.71
2022-09-06T04:00:59.253Z,15.49
2022-09-06T04:03:26.367Z,15.87
2022-09-06T04:05:53.433Z,15.86
2022-09-06T04:08:20.505Z,15.78
2022-09-06T04:10:52.670Z,15.79
2022-09-06T04:13:19.978Z,15.74
2022-09-06T04:15:50.897Z,15.72
2022-09-06T04:18:18.225Z,15.72
2022-09-06T04:20:49.768Z,15.80
2022-09-06T04:23:17.725Z,15.88
2022-09-06T04:25:55.144Z,15.94
2022-09-06T04:28:23.008Z,15.93
2022-09-06T04:31:00.916Z,15.97
2022-09-06T04:33:34.195Z,16.01
2022-09-06T04:36:04.412Z,16.10
2022-09-06T04:38:37.316Z,16.16
2022-09-06T04:41:06.103Z,16.19
2022-09-06T04:43:33.222Z,16.17
2022-09-06T04:46:30.360Z,16.19
2022-09-06T04:48:58.405Z,16.23
2022-09-06T04:51:26.112Z,16.23
2022-09-06T04:53:53.406Z,16.22
2022-09-06T04:56:24.242Z,16.28
2022-09-06T04:58:55.101Z,16.25
2022-09-06T05:01:23.141Z,16.22
2022-09-06T05:03:52.977Z,16.23
2022-09-06T05:06:24.850Z,16.25
2022-09-06T05:08:52.403Z,16.28
2022-09-06T05:11:20.870Z,16.17
2022-09-06T05:13:50.097Z,16.29
2022-09-06T05:16:17.252Z,16.31
2022-09-06T05:18:44.422Z,16.25
2022-09-06T05:21:11.866Z,16.33
2022-09-06T05:23:38.941Z,16.33
2022-09-06T05:26:06.631Z,16.42
2022-09-06T05:28:34.037Z,16.45
2022-09-06T05:31:24.462Z,16.39
2022-09-06T05:33:54.100Z,16.52
2022-09-06T05:36:23.520Z,16.61
2022-09-06T05:38:51.891Z,16.69
2022-09-06T05:41:19.682Z,16.80
2022-09-06T05:43:46.931Z,16.85
2022-09-06T05:46:15.576Z,17.12
2022-09-06T05:48:43.059Z,17.21
2022-09-06T05:51:13.185Z,17.35
2022-09-06T05:53:44.259Z,17.47
2022-09-06T05:56:14.623Z,17.56
2022-09-06T05:58:41.725Z,17.64
2022-09-06T06:01:20.521Z,17.70
2022-09-06T06:04:03.746Z,17.85
2022-09-06T06:06:34.314Z,17.92
2022-09-06T06:09:01.734Z,18.04
2022-09-06T06:11:31.588Z,18.28
2022-09-06T06:14:01.999Z,18.25
2022-09-06T06:16:29.347Z,18.52
2022-09-06T06:18:56.892Z,18.56
2022-09-06T06:21:28.149Z,18.65
2022-09-06T06:24:04.201Z,18.77
2022-09-06T06:26:34.488Z,18.87
2022-09-06T06:29:02.393Z,18.97
2022-09-06T06:31:34.217Z,19.05
2022-09-06T06:34:03.733Z,19.12
2022-09-06T06:36:33.955Z,19.17
2022-09-06T06:39:04.595Z,19.29
2022-09-06T06:41:32.959Z,18.97
2022-09-06T06:44:03.395Z,19.47
2022-09-06T06:46:36.684Z,19.61
2022-09-06T06:49:04.238Z,19.79
2022-09-06T06:51:37.095Z,19.93
2022-09-06T06:54:05.946Z,20.01
2022-09-06T06:56:40.940Z,20.10
2022-09-06T06:59:30.941Z,20.21
2022-09-06T07:01:58.789Z,20.30
2022-09-06T07:04:26.026Z,20.35
2022-09-06T07:12:32.481Z,20.22
2022-09-06T07:14:59.795Z,20.54
2022-09-06T07:17:26.874Z,20.46
2022-09-06T07:22:41.855Z,20.53
2022-09-06T07:25:12.232Z,20.73
2022-09-06T07:27:49.086Z,20.72
2022-09-06T07:30:17.465Z,20.67
2022-09-06T07:32:44.674Z,20.63
2022-09-06T07:35:13.971Z,20.60
2022-09-06T07:37:41.269Z,20.37
2022-09-06T07:40:09.734Z,20.47
2022-09-06T07:42:37.040Z,20.69
2022-09-06T07:45:05.656Z,20.71
2022-09-06T07:53:12.004Z,20.63
2022-09-06T07:55:43.054Z,20.68
2022-09-06T07:58:10.288Z,20.65
2022-09-06T08:00:38.463Z,20.70
2022-09-06T08:03:05.734Z,20.67
2022-09-06T08:11:07.744Z,20.69
2022-09-06T08:13:37.509Z,20.74
2022-09-06T08:16:09.644Z,20.77
2022-09-06T08:18:37.802Z,20.78
2022-09-06T08:21:12.023Z,20.84
2022-09-06T08:23:44.851Z,20.93
2022-09-06T08:26:13.043Z,21.04
2022-09-06T08:32:17.289Z,21.23
2022-09-06T08:34:52.185Z,21.35
2022-09-06T08:37:25.195Z,21.52
2022-09-06T08:41:01.825Z,21.61
2022-09-06T08:43:29.180Z,21.74
2022-09-06T08:45:57.633Z,21.74
2022-09-06T08:48:29.933Z,21.90
2022-09-06T08:51:08.919Z,22.12
2022-09-06T08:53:44.391Z,22.44
2022-09-06T08:56:15.723Z,23.03
2022-09-06T08:59:06.541Z,23.31
2022-09-06T09:02:09.827Z,23.67
2022-09-06T09:04:44.545Z,23.73
2022-09-06T09:07:35.932Z,23.69
2022-09-06T09:10:21.601Z,23.69
2022-09-06T09:12:50.031Z,23.67
2022-09-06T09:15:27.829Z,23.60
2022-09-06T09:17:55.572Z,23.66
2022-09-06T09:20:23.291Z,23.32
2022-09-06T09:22:50.452Z,23.55
2022-09-06T09:25:24.658Z,24.01
2022-09-06T09:28:00.267Z,24.66
2022-09-06T09:30:49.120Z,24.85
2022-09-06T09:33:30.641Z,24.53
2022-09-06T09:36:04.970Z,24.36
2022-09-06T09:38:45.781Z,23.85
2022-09-06T09:41:50.738Z,23.60
2022-09-06T09:44:20.777Z,23.43
2022-09-06T09:46:47.915Z,23.20
2022-09-06T09:49:25.053Z,23.18
2022-09-06T09:52:14.921Z,23.16
2022-09-06T09:54:46.675Z,23.47
2022-09-06T09:57:20.343Z,23.73
2022-09-06T10:00:01.127Z,23.96
2022-09-06T10:02:35.788Z,24.13
2022-09-06T10:05:13.799Z,24.37
2022-09-06T10:07:43.673Z,24.72
2022-09-06T10:10:30.047Z,24.97
2022-09-06T10:13:16.298Z,25.04
2022-09-06T10:15:43.804Z,25.20
2022-09-06T10:18:37.597Z,25.32
2022-09-06T10:21:23.956Z,24.98
2022-09-06T10:24:27.310Z,25.41
2022-09-06T10:27:03.353Z,25.48
2022-09-06T10:30:04.862Z,25.14
2022-09-06T10:32:41.604Z,25.00
2022-09-06T10:35:32.273Z,24.79
2022-09-06T10:38:36.276Z,24.91
2022-09-06T10:41:25.168Z,24.69
2022-09-06T10:44:09.047Z,24.70
2022-09-06T10:46:37.172Z,25.20
2022-09-06T10:49:06.980Z,25.19
2022-09-06T10:51:52.202Z,25.07
2022-09-06T10:54:24.769Z,24.89
2022-09-06T11:00:14.274Z,24.65
2022-09-06T11:06:12.717Z,25.72
2022-09-06T11:09:12.333Z,26.42
2022-09-06T11:12:06.434Z,27.49
2022-09-06T11:14:36.428Z,28.37
2022-09-06T11:17:07.076Z,28.47
2022-09-06T11:19:51.522Z,28.86
2022-09-06T11:22:27.817Z,28.84
2022-09-06T11:25:27.344Z,29.76
2022-09-06T11:27:58.429Z,30.31
2022-09-06T11:30:27.340Z,30.07
2022-09-06T11:33:08.567Z,30.53
2022-09-06T11:35:36.610Z,31.08
2022-09-06T11:38:16.257Z,30.38
2022-09-06T11:40:49.317Z,30.38
2022-09-06T11:43:49.862Z,31.01
2022-09-06T11:46:35.109Z,31.30
2022-09-06T11:49:35.587Z,31.03
2022-09-06T11:52:22.931Z,31.22
2022-09-06T11:54:53.466Z,31.14
2022-09-06T11:57:26.327Z,30.31
2022-09-06T12:00:01.850Z,29.53
2022-09-06T12:02:45.058Z,29.84
2022-09-06T12:05:27.047Z,30.08
2022-09-06T12:08:24.725Z,30.16
2022-09-06T12:11:00.323Z,30.36
2022-09-06T12:14:00.867Z,30.00
2022-09-06T12:17:14.149Z,29.39
2022-09-06T12:19:55.383Z,29.05
2022-09-06T12:22:32.697Z,28.73
2022-09-06T12:25:02.008Z,28.55
2022-09-06T12:27:39.668Z,28.31
2022-09-06T12:30:12.142Z,28.35
2022-09-06T12:32:46.921Z,28.06
2022-09-06T12:38:17.193Z,27.01
2022-09-06T12:40:58.521Z,26.89
2022-09-06T12:43:27.294Z,26.86
2022-09-06T12:45:54.553Z,26.87
2022-09-06T12:48:35.773Z,26.59
2022-09-06T12:51:20.229Z,26.42
2022-09-06T12:53:58.263Z,26.27
2022-09-06T12:56:28.908Z,26.19
2022-09-06T12:59:25.068Z,26.13
2022-09-06T13:02:06.986Z,25.94
2022-09-06T13:04:46.750Z,25.80
2022-09-06T13:07:18.219Z,25.66
2022-09-06T13:09:52.171Z,25.54
2022-09-06T13:12:37.429Z,25.44
2022-09-06T13:15:31.265Z,25.37
2022-09-06T13:18:20.481Z,25.27
2022-09-06T13:21:00.299Z,25.13
2022-09-06T13:23:28.049Z,24.92
2022-09-06T13:25:56.289Z,24.91
2022-09-06T13:28:34.830Z,24.78
2022-09-06T13:31:21.045Z,24.72
2022-09-06T13:33:59.622Z,24.57
2022-09-06T13:36:32.698Z,24.47
2022-09-06T13:39:03.566Z,24.26
2022-09-06T13:41:30.500Z,24.04
2022-09-06T13:44:28.753Z,22.31
2022-09-06T13:46:55.847Z,22.15
2022-09-06T13:49:24.501Z,21.39
2022-09-06T13:52:00.243Z,21.12
2022-09-06T13:54:28.378Z,20.45
2022-09-06T13:56:56.806Z,20.26
2022-09-06T13:59:25.248Z,19.63
2022-09-06T14:02:09.967Z,19.21
2022-09-06T14:04:37.707Z,18.96
2022-09-06T14:07:05.668Z,18.87
2022-09-06T14:09:33.311Z,18.73
2022-09-06T14:12:01.089Z,18.50
2022-09-06T14:14:28.270Z,18.55
2022-09-06T14:16:55.553Z,18.51
2022-09-06T14:19:23.200Z,18.61
2022-09-06T14:21:50.424Z,18.81
2022-09-06T14:24:17.761Z,18.96
2022-09-06T14:26:44.888Z,18.92
2022-09-06T14:29:11.955Z,19.14
2022-09-06T14:31:39.664Z,18.83
2022-09-06T14:34:07.178Z,19.28
2022-09-06T14:36:34.846Z,19.33
2022-09-06T14:39:03.891Z,19.35
2022-09-06T14:41:31.349Z,19.45
2022-09-06T14:43:59.828Z,19.49
2022-09-06T14:46:29.121Z,19.56
2022-09-06T14:49:03.636Z,19.47
2022-09-06T14:51:31.191Z,19.75
2022-09-06T14:54:11.953Z,19.80
2022-09-06T14:56:41.986Z,19.89
2022-09-06T14:59:10.580Z,19.95
2022-09-06T15:01:39.706Z,19.79
2022-09-06T15:04:10.318Z,19.73
2022-09-06T15:06:40.631Z,19.85
2022-09-06T15:09:10.209Z,19.88
2022-09-06T15:11:44.073Z,19.92
2022-09-06T15:14:24.569Z,19.91
2022-09-06T15:16:56.476Z,19.94
2022-09-06T15:19:29.300Z,19.96
2022-09-06T15:21:57.835Z,19.98
2022-09-06T15:24:25.622Z,19.94
2022-09-06T15:26:52.799Z,20.03
2022-09-06T15:29:20.524Z,20.04
2022-09-06T15:31:50.864Z,20.03
2022-09-06T15:34:23.817Z,20.07
2022-09-06T15:36:52.342Z,20.06
2022-09-06T15:39:20.132Z,20.06
2022-09-06T15:41:49.952Z,20.03
2022-09-06T15:44:20.470Z,19.99
2022-09-06T15:47:00.751Z,19.94
2022-09-06T15:49:32.211Z,19.91
2022-09-06T15:52:01.871Z,19.84
2022-09-06T15:54:48.315Z,19.84
2022-09-06T15:57:17.383Z,19.83
2022-09-06T15:59:45.526Z,19.85
2022-09-06T16:02:13.298Z,19.76
2022-09-06T16:04:40.531Z,19.68
2022-09-06T16:07:07.652Z,19.56
2022-09-06T16:09:34.996Z,19.67
2022-09-06T16:12:02.462Z,19.63
2022-09-06T16:14:29.892Z,19.58
2022-09-06T16:16:57.434Z,19.58
2022-09-06T16:19:26.048Z,19.63
2022-09-06T16:21:53.803Z,19.68
2022-09-06T16:24:21.368Z,19.67
2022-09-06T16:26:48.953Z,19.64
2022-09-06T16:29:19.027Z,19.63
2022-09-06T16:31:47.039Z,19.69
2022-09-06T16:34:15.197Z,19.74
2022-09-06T16:36:42.591Z,19.72
2022-09-06T16:39:10.754Z,19.70
2022-09-06T16:41:43.946Z,19.70
2022-09-06T16:44:17.346Z,19.73
2022-09-06T16:46:49.961Z,19.77
2022-09-06T16:49:19.208Z,19.79
2022-09-06T16:51:48.456Z,19.82
2022-09-06T16:54:18.176Z,19.79
2022-09-06T16:56:45.821Z,19.83
2022-09-06T16:59:15.303Z,19.81
2022-09-06T17:01:43.493Z,19.83
2022-09-06T17:04:12.890Z,19.85
2022-09-06T17:06:47.389Z,19.85
2022-09-06T17:09:18.758Z,19.86
2022-09-06T17:11:49.706Z,19.86
2022-09-06T17:14:17.843Z,19.81
2022-09-06T17:17:03.580Z,19.73
2022-09-06T17:19:34.610Z,19.62
2022-09-06T17:22:02.548Z,19.56
2022-09-06T17:24:29.805Z,19.57
2022-09-06T17:26:57.022Z,19.58
2022-09-06T17:29:26.656Z,19.60
2022-09-06T17:31:54.250Z,19.44
2022-09-06T17:34:22.556Z,19.53
2022-09-06T17:36:49.997Z,19.53
2022-09-06T17:39:21.063Z,19.57
2022-09-06T17:41:50.775Z,19.58
2022-09-06T17:44:25.363Z,19.62
2022-09-06T17:49:41.701Z,19.47
2022-09-06T17:52:09.738Z,19.51
2022-09-06T17:54:37.296Z,19.48
2022-09-06T17:57:04.832Z,19.47
2022-09-06T17:59:35.409Z,19.49
2022-09-06T18:02:04.506Z,19.39
2022-09-06T18:04:32.207Z,19.41
2022-09-06T18:06:59.733Z,19.40
2022-09-06T18:09:27.327Z,19.33
2022-09-06T18:11:54.766Z,19.28
2022-09-06T18:14:22.275Z,19.21
2022-09-06T18:16:52.004Z,19.15
2022-09-06T18:19:19.857Z,19.13
2022-09-06T18:21:48.538Z,19.06
2022-09-06T18:24:16.447Z,19.01
2022-09-06T18:26:44.982Z,18.94
2022-09-06T18:29:14.856Z,18.86
2022-09-06T18:31:43.552Z,18.76
2022-09-06T18:34:12.343Z,18.67
2022-09-06T18:36:40.401Z,18.65
2022-09-06T18:39:07.971Z,18.58
2022-09-06T18:41:54.308Z,18.58
2022-09-06T18:44:22.427Z,18.56
2022-09-06T18:46:50.203Z,18.56
2022-09-06T18:49:17.779Z,18.55
2022-09-06T18:51:45.618Z,18.54
2022-09-06T18:54:14.009Z,18.47
2022-09-06T18:56:44.717Z,18.36
2022-09-06T18:59:13.218Z,18.27
2022-09-06T19:01:40.778Z,18.21
2022-09-06T19:04:08.511Z,18.16
2022-09-06T19:06:38.614Z,18.09
2022-09-06T19:09:10.427Z,18.08
2022-09-06T19:11:38.170Z,18.06
2022-09-06T19:14:05.992Z,18.05
2022-09-06T19:16:33.724Z,18.01
2022-09-06T19:19:06.527Z,17.99
2022-09-06T19:21:39.190Z,17.95
2022-09-06T19:24:10.607Z,17.92
2022-09-06T19:26:41.517Z,17.92
2022-09-06T19:29:13.992Z,17.92
2022-09-06T19:31:42.583Z,17.86
2022-09-06T19:34:10.242Z,17.80
2022-09-06T19:36:37.711Z,17.76
2022-09-06T19:39:08.495Z,17.75
2022-09-06T19:41:43.057Z,17.78
2022-09-06T19:44:11.966Z,17.78
2022-09-06T19:46:45.435Z,17.80
2022-09-06T19:49:15.916Z,17.81
2022-09-06T19:51:46.850Z,17.79
2022-09-06T19:54:15.493Z,17.79
2022-09-06T19:56:44.786Z,17.80
2022-09-06T19:59:14.248Z,17.82
2022-09-06T20:01:43.411Z,17.82
2022-09-06T20:04:12.354Z,17.66
2022-09-06T20:06:40.099Z,17.76
2022-09-06T20:09:10.149Z,17.76
2022-09-06T20:11:39.084Z,17.68
2022-09-06T20:14:07.012Z,17.54
2022-09-06T20:16:38.138Z,17.67
2022-09-06T20:19:08.391Z,17.70
2022-09-06T20:21:35.895Z,17.69
2022-09-06T20:24:03.694Z,17.70
2022-09-06T20:26:31.368Z,17.71
2022-09-06T20:29:01.372Z,17.68
2022-09-06T20:31:30.963Z,17.60
2022-09-06T20:34:04.300Z,17.55
2022-09-06T20:36:32.019Z,17.55
2022-09-06T20:38:59.630Z,17.55
2022-09-06T20:41:28.167Z,17.53
2022-09-06T20:43:57.782Z,17.53
2022-09-06T20:46:28.318Z,17.49
2022-09-06T20:48:58.294Z,17.40
2022-09-06T20:51:26.225Z,17.35
2022-09-06T20:54:00.481Z,17.35
2022-09-06T20:56:34.912Z,17.37
2022-09-06T20:59:05.879Z,17.40
2022-09-06T21:01:45.116Z,17.39
2022-09-06T21:04:15.190Z,17.37
2022-09-06T21:07:08.999Z,17.30
2022-09-06T21:09:36.894Z,17.32
2022-09-06T21:12:04.737Z,17.26
2022-09-06T21:14:32.008Z,17.14
2022-09-06T21:16:59.558Z,17.20
2022-09-06T21:19:27.203Z,17.16
2022-09-06T21:21:54.700Z,17.11
2022-09-06T21:24:22.234Z,17.01
2022-09-06T21:26:49.740Z,16.93
2022-09-06T21:29:17.233Z,16.88
2022-09-06T21:31:45.181Z,16.81
2022-09-06T21:34:16.890Z,16.76
2022-09-06T21:36:45.266Z,16.75
2022-09-06T21:39:13.168Z,16.76
2022-09-06T21:41:42.519Z,16.77
2022-09-06T21:44:10.531Z,16.79
2022-09-06T21:46:39.731Z,16.81
2022-09-06T21:49:09.738Z,16.77
2022-09-06T21:51:37.833Z,16.72
2022-09-06T21:54:06.142Z,16.73
2022-09-06T21:56:38.716Z,16.68
2022-09-06T21:59:06.806Z,16.64
2022-09-06T22:01:36.926Z,16.64
2022-09-06T22:04:05.975Z,16.66
2022-09-06T22:06:35.281Z,16.67
2022-09-06T22:09:11.383Z,16.65
2022-09-06T22:11:40.821Z,16.62
2022-09-06T22:14:11.010Z,16.58
2022-09-06T22:16:40.456Z,16.55
2022-09-06T22:19:09.747Z,16.49
2022-09-06T22:21:38.966Z,16.49
2022-09-06T22:24:09.089Z,16.46
2022-09-06T22:26:38.698Z,16.35
2022-09-06T22:29:09.703Z,16.42
2022-09-06T22:31:37.990Z,16.41
2022-09-06T22:34:06.422Z,16.36
2022-09-06T22:36:33.964Z,16.36
2022-09-06T22:39:01.344Z,16.38
2022-09-06T22:41:31.282Z,16.35
2022-09-06T22:44:00.872Z,16.31
2022-09-06T22:46:28.872Z,16.30
2022-09-06T22:48:56.588Z,16.33
2022-09-06T22:51:24.035Z,16.34
2022-09-06T22:53:51.857Z,16.32
2022-09-06T22:56:19.282Z,16.30
2022-09-06T22:58:46.842Z,16.26
2022-09-06T23:01:16.062Z,16.20
2022-09-06T23:03:44.219Z,16.19
2022-09-06T23:06:11.852Z,16.15
2022-09-06T23:08:40.944Z,16.03
2022-09-06T23:11:11.756Z,16.09
2022-09-06T23:13:43.520Z,16.09
2022-09-06T23:16:17.927Z,16.10
2022-09-06T23:18:46.054Z,16.10
2022-09-06T23:21:17.037Z,16.04
2022-09-06T23:23:45.553Z,16.03
2022-09-06T23:26:18.289Z,16.02
2022-09-06T23:28:46.194Z,16.02
2022-09-06T23:31:16.731Z,16.03
2022-09-06T23:33:44.681Z,16.04
2022-09-06T23:36:14.720Z,16.02
2022-09-06T23:38:43.515Z,15.98
2022-09-06T23:41:11.618Z,15.92
2022-09-06T23:43:41.755Z,15.90
2022-09-06T23:46:10.739Z,15.87
2022-09-06T23:48:39.239Z,15.89
2022-09-06T23:51:07.117Z,15.85
2022-09-06T23:53:34.264Z,15.91
2022-09-06T23:56:01.920Z,15.97
2022-09-06T23:58:29.065Z,15.78
